sensor_id;sensor_type;location;lat;lon;timestamp;pressure;altitude;pressure_sealevel;temperature;humidity
65190;BME280;51777;53.570;9.984;2023-04-06T00:01:25;101756.75;;;5.17;100.00
65190;BME280;51777;53.570;9.984;2023-04-06T00:03:50;101752.72;;;5.13;100.00
65190;BME280;51777;53.570;9.984;2023-04-06T00:06:16;101752.13;;;5.08;100.00
65190;BME280;51777;53.570;9.984;2023-04-06T00:08:42;101750.84;;;5.01;100.00
65190;BME280;51777;53.570;9.984;2023-04-06T00:11:08;101744.72;;;5.04;100.00
65190;BME280;51777;53.570;9.984;2023-04-06T00:13:33;101747.47;;;5.00;100.00
65190;BME280;51777;53.570;9.984;2023-04-06T00:15:59;101746.94;;;4.94;100.00
65190;BME280;51777;53.570;9.984;2023-04-06T00:18:24;101749.50;;;4.94;100.00
65190;BME280;51777;53.570;9.984;2023-04-06T00:20:50;101743.47;;;4.95;100.00
65190;BME280;51777;53.570;9.984;2023-04-06T00:23:16;101743.91;;;4.87;100.00
65190;BME280;51777;53.570;9.984;2023-04-06T00:25:41;101736.41;;;4.84;100.00
65190;BME280;51777;53.570;9.984;2023-04-06T00:28:07;101738.81;;;4.71;100.00
65190;BME280;51777;53.570;9.984;2023-04-06T00:30:32;101738.13;;;4.68;100.00
65190;BME280;51777;53.570;9.984;2023-04-06T00:32:58;101730.94;;;4.59;100.00
65190;BME280;51777;53.570;9.984;2023-04-06T00:35:23;101735.41;;;4.55;100.00
65190;BME280;51777;53.570;9.984;2023-04-06T00:37:48;101719.28;;;4.53;100.00
65190;BME280;51777;53.570;9.984;2023-04-06T00:40:14;101723.16;;;4.45;100.00
65190;BME280;51777;53.570;9.984;2023-04-06T00:42:40;101724.16;;;4.42;100.00
65190;BME280;51777;53.570;9.984;2023-04-06T00:45:07;101720.94;;;4.38;100.00
65190;BME280;51777;53.570;9.984;2023-04-06T00:47:33;101722.44;;;4.42;100.00
65190;BME280;51777;53.570;9.984;2023-04-06T00:49:58;101720.59;;;4.45;100.00
65190;BME280;51777;53.570;9.984;2023-04-06T00:52:25;101713.19;;;4.40;100.00
65190;BME280;51777;53.570;9.984;2023-04-06T00:54:50;101714.91;;;4.39;100.00
65190;BME280;51777;53.570;9.984;2023-04-06T00:57:16;101717.47;;;4.39;100.00
65190;BME280;51777;53.570;9.984;2023-04-06T00:59:42;101719.78;;;4.44;100.00
65190;BME280;51777;53.570;9.984;2023-04-06T01:02:08;101715.47;;;4.45;100.00
65190;BME280;51777;53.570;9.984;2023-04-06T01:04:34;101713.91;;;4.42;100.00
65190;BME280;51777;53.570;9.984;2023-04-06T01:06:59;101709.31;;;4.49;100.00
65190;BME280;51777;53.570;9.984;2023-04-06T01:09:27;101702.28;;;4.52;100.00
65190;BME280;51777;53.570;9.984;2023-04-06T01:11:53;101702.19;;;4.54;100.00
65190;BME280;51777;53.570;9.984;2023-04-06T01:14:19;101702.03;;;4.57;100.00
65190;BME280;51777;53.570;9.984;2023-04-06T01:16:45;101702.09;;;4.55;100.00
65190;BME280;51777;53.570;9.984;2023-04-06T01:19:11;101699.72;;;4.52;100.00
65190;BME280;51777;53.570;9.984;2023-04-06T01:21:38;101696.66;;;4.46;100.00
65190;BME280;51777;53.570;9.984;2023-04-06T01:24:04;101694.03;;;4.47;100.00
65190;BME280;51777;53.570;9.984;2023-04-06T01:26:30;101692.53;;;4.43;100.00
65190;BME280;51777;53.570;9.984;2023-04-06T01:28:56;101689.88;;;4.45;100.00
65190;BME280;51777;53.570;9.984;2023-04-06T01:31:22;101689.88;;;4.45;100.00
65190;BME280;51777;53.570;9.984;2023-04-06T01:33:48;101688.97;;;4.46;100.00
65190;BME280;51777;53.570;9.984;2023-04-06T01:36:14;101690.69;;;4.45;100.00
65190;BME280;51777;53.570;9.984;2023-04-06T01:38:39;101691.69;;;4.42;100.00
65190;BME280;51777;53.570;9.984;2023-04-06T01:41:07;101688.41;;;4.40;100.00
65190;BME280;51777;53.570;9.984;2023-04-06T01:43:32;101692.53;;;4.43;100.00
65190;BME280;51777;53.570;9.984;2023-04-06T01:45:57;101686.56;;;4.42;100.00
65190;BME280;51777;53.570;9.984;2023-04-06T01:48:23;101693.34;;;4.43;100.00
65190;BME280;51777;53.570;9.984;2023-04-06T01:50:48;101692.53;;;4.43;100.00
65190;BME280;51777;53.570;9.984;2023-04-06T01:53:17;101681.63;;;4.39;100.00
65190;BME280;51777;53.570;9.984;2023-04-06T01:55:42;101679.06;;;4.39;100.00
65190;BME280;51777;53.570;9.984;2023-04-06T01:58:08;101677.50;;;4.37;100.00
65190;BME280;51777;53.570;9.984;2023-04-06T02:00:33;101675.25;;;4.31;100.00
65190;BME280;51777;53.570;9.984;2023-04-06T02:02:59;101668.91;;;4.22;100.00
65190;BME280;51777;53.570;9.984;2023-04-06T02:05:25;101669.75;;;4.23;100.00
65190;BME280;51777;53.570;9.984;2023-04-06T02:07:51;101669.75;;;4.23;100.00
65190;BME280;51777;53.570;9.984;2023-04-06T02:10:17;101670.56;;;4.23;100.00
65190;BME280;51777;53.570;9.984;2023-04-06T02:12:42;101666.34;;;4.22;100.00
65190;BME280;51777;53.570;9.984;2023-04-06T02:15:08;101677.66;;;4.18;100.00
65190;BME280;51777;53.570;9.984;2023-04-06T02:17:33;101661.25;;;4.22;100.00
65190;BME280;51777;53.570;9.984;2023-04-06T02:19:59;101664.63;;;4.23;100.00
65190;BME280;51777;53.570;9.984;2023-04-06T02:22:24;101662.97;;;4.22;100.00
65190;BME280;51777;53.570;9.984;2023-04-06T02:24:50;101652.88;;;4.19;100.00
65190;BME280;51777;53.570;9.984;2023-04-06T02:27:15;101662.28;;;4.18;100.00
65190;BME280;51777;53.570;9.984;2023-04-06T02:29:41;101651.56;;;4.11;100.00
65190;BME280;51777;53.570;9.984;2023-04-06T02:32:06;101659.06;;;4.15;100.00
65190;BME280;51777;53.570;9.984;2023-04-06T02:34:32;101665.09;;;4.13;100.00
65190;BME280;51777;53.570;9.984;2023-04-06T02:36:58;101659.25;;;4.11;100.00
65190;BME280;51777;53.570;9.984;2023-04-06T02:39:23;101648.19;;;4.11;100.00
65190;BME280;51777;53.570;9.984;2023-04-06T02:41:49;101664.38;;;4.11;100.00
65190;BME280;51777;53.570;9.984;2023-04-06T02:44:14;101654.88;;;4.13;100.00
65190;BME280;51777;53.570;9.984;2023-04-06T02:46:39;101663.47;;;4.12;100.00
65190;BME280;51777;53.570;9.984;2023-04-06T02:49:05;101665.09;;;4.13;100.00
65190;BME280;51777;53.570;9.984;2023-04-06T02:51:31;101659.38;;;4.08;100.00
65190;BME280;51777;53.570;9.984;2023-04-06T02:53:56;101658.56;;;4.08;100.00
65190;BME280;51777;53.570;9.984;2023-04-06T02:56:22;101659.34;;;4.10;100.00
65190;BME280;51777;53.570;9.984;2023-04-06T02:58:47;101662.84;;;4.07;100.00
65190;BME280;51777;53.570;9.984;2023-04-06T03:01:13;101655.44;;;4.03;100.00
65190;BME280;51777;53.570;9.984;2023-04-06T03:03:38;101658.28;;;3.97;100.00
65190;BME280;51777;53.570;9.984;2023-04-06T03:06:04;101662.53;;;3.98;100.00
65190;BME280;51777;53.570;9.984;2023-04-06T03:08:29;101661.72;;;3.97;100.00
65190;BME280;51777;53.570;9.984;2023-04-06T03:10:55;101662.44;;;3.99;100.00
65190;BME280;51777;53.570;9.984;2023-04-06T03:13:21;101660.94;;;3.95;100.00
65190;BME280;51777;53.570;9.984;2023-04-06T03:15:46;101664.56;;;3.91;100.00
65190;BME280;51777;53.570;9.984;2023-04-06T03:18:12;101668.19;;;3.87;100.00
65190;BME280;51777;53.570;9.984;2023-04-06T03:20:37;101662.47;;;3.82;100.00
65190;BME280;51777;53.570;9.984;2023-04-06T03:23:03;101659.00;;;3.83;100.00
65190;BME280;51777;53.570;9.984;2023-04-06T03:25:28;101656.63;;;3.80;100.00
65190;BME280;51777;53.570;9.984;2023-04-06T03:27:55;101662.06;;;3.74;100.00
65190;BME280;51777;53.570;9.984;2023-04-06T03:30:21;101663.84;;;3.72;100.00
65190;BME280;51777;53.570;9.984;2023-04-06T03:32:46;101660.72;;;3.67;100.00
65190;BME280;51777;53.570;9.984;2023-04-06T03:35:12;101654.50;;;3.55;100.00
65190;BME280;51777;53.570;9.984;2023-04-06T03:37:37;101667.53;;;3.50;100.00
65190;BME280;51777;53.570;9.984;2023-04-06T03:40:04;101663.53;;;3.45;100.00
65190;BME280;51777;53.570;9.984;2023-04-06T03:42:30;101658.66;;;3.40;100.00
65190;BME280;51777;53.570;9.984;2023-04-06T03:44:59;101667.38;;;3.36;100.00
65190;BME280;51777;53.570;9.984;2023-04-06T03:47:24;101660.84;;;3.31;100.00
65190;BME280;51777;53.570;9.984;2023-04-06T03:49:50;101656.38;;;3.34;100.00
65190;BME280;51777;53.570;9.984;2023-04-06T03:52:16;101665.66;;;3.37;100.00
65190;BME280;51777;53.570;9.984;2023-04-06T03:54:41;101659.72;;;3.36;100.00
65190;BME280;51777;53.570;9.984;2023-04-06T03:57:07;101660.63;;;3.35;100.00
65190;BME280;51777;53.570;9.984;2023-04-06T03:59:32;101665.94;;;3.31;100.00
65190;BME280;51777;53.570;9.984;2023-04-06T04:01:58;101664.63;;;3.23;100.00
65190;BME280;51777;53.570;9.984;2023-04-06T04:04:23;101664.53;;;3.25;100.00
65190;BME280;51777;53.570;9.984;2023-04-06T04:06:48;101666.56;;;3.18;100.00
65190;BME280;51777;53.570;9.984;2023-04-06T04:09:14;101665.25;;;3.10;100.00
65190;BME280;51777;53.570;9.984;2023-04-06T04:11:39;101670.53;;;3.07;100.00
65190;BME280;51777;53.570;9.984;2023-04-06T04:14:05;101666.63;;;3.17;100.00
65190;BME280;51777;53.570;9.984;2023-04-06T04:16:30;101670.25;;;3.13;100.00
65190;BME280;51777;53.570;9.984;2023-04-06T04:18:56;101675.63;;;3.07;100.00
65190;BME280;51777;53.570;9.984;2023-04-06T04:21:23;101669.03;;;3.03;100.00
65190;BME280;51777;53.570;9.984;2023-04-06T04:23:48;101676.06;;;2.98;100.00
65190;BME280;51777;53.570;9.984;2023-04-06T04:26:14;101674.41;;;2.97;100.00
65190;BME280;51777;53.570;9.984;2023-04-06T04:28:40;101677.50;;;2.86;100.00
65190;BME280;51777;53.570;9.984;2023-04-06T04:31:05;101679.50;;;2.79;100.00
65190;BME280;51777;53.570;9.984;2023-04-06T04:33:31;101681.31;;;2.77;100.00
65190;BME280;51777;53.570;9.984;2023-04-06T04:35:56;101681.25;;;2.79;100.00
65190;BME280;51777;53.570;9.984;2023-04-06T04:38:22;101682.41;;;2.72;100.00
65190;BME280;51777;53.570;9.984;2023-04-06T04:40:47;101683.13;;;2.75;100.00
65190;BME280;51777;53.570;9.984;2023-04-06T04:43:12;101672.97;;;2.74;100.00
65190;BME280;51777;53.570;9.984;2023-04-06T04:45:38;101675.81;;;2.68;100.00
65190;BME280;51777;53.570;9.984;2023-04-06T04:48:03;101683.88;;;2.77;100.00
65190;BME280;51777;53.570;9.984;2023-04-06T04:50:30;101689.13;;;2.74;100.00
65190;BME280;51777;53.570;9.984;2023-04-06T04:52:55;101683.63;;;2.64;100.00
65190;BME280;51777;53.570;9.984;2023-04-06T04:55:21;101679.50;;;2.62;100.00
65190;BME280;51777;53.570;9.984;2023-04-06T04:57:46;101679.56;;;2.60;100.00
65190;BME280;51777;53.570;9.984;2023-04-06T05:00:12;101679.75;;;2.56;100.00
65190;BME280;51777;53.570;9.984;2023-04-06T05:02:40;101674.13;;;2.49;100.00
65190;BME280;51777;53.570;9.984;2023-04-06T05:05:07;101675.91;;;2.47;100.00
65190;BME280;51777;53.570;9.984;2023-04-06T05:07:32;101678.66;;;2.43;100.00
65190;BME280;51777;53.570;9.984;2023-04-06T05:10:00;101677.78;;;2.44;100.00
65190;BME280;51777;53.570;9.984;2023-04-06T05:12:25;101674.13;;;2.49;100.00
65190;BME280;51777;53.570;9.984;2023-04-06T05:14:53;101676.88;;;2.45;100.00
65190;BME280;51777;53.570;9.984;2023-04-06T05:17:18;101678.41;;;2.49;100.00
65190;BME280;51777;53.570;9.984;2023-04-06T05:19:44;101681.56;;;2.54;100.00
65190;BME280;51777;53.570;9.984;2023-04-06T05:22:09;101677.06;;;2.59;100.00
65190;BME280;51777;53.570;9.984;2023-04-06T05:24:35;101684.59;;;2.62;100.00
65190;BME280;51777;53.570;9.984;2023-04-06T05:27:00;101686.09;;;2.66;100.00
65190;BME280;51777;53.570;9.984;2023-04-06T05:29:26;101681.00;;;2.66;100.00
65190;BME280;51777;53.570;9.984;2023-04-06T05:31:51;101680.75;;;2.71;100.00
65190;BME280;51777;53.570;9.984;2023-04-06T05:34:17;101684.22;;;2.70;100.00
65190;BME280;51777;53.570;9.984;2023-04-06T05:36:42;101689.06;;;2.76;100.00
65190;BME280;51777;53.570;9.984;2023-04-06T05:39:07;101683.19;;;2.74;100.00
65190;BME280;51777;53.570;9.984;2023-04-06T05:41:33;101683.72;;;2.80;100.00
65190;BME280;51777;53.570;9.984;2023-04-06T05:43:59;101678.63;;;2.80;100.00
65190;BME280;51777;53.570;9.984;2023-04-06T05:46:24;101678.03;;;2.92;100.00
65190;BME280;51777;53.570;9.984;2023-04-06T05:48:50;101678.84;;;2.93;100.00
65190;BME280;51777;53.570;9.984;2023-04-06T05:51:15;101684.50;;;3.00;100.00
65190;BME280;51777;53.570;9.984;2023-04-06T05:53:40;101682.56;;;3.05;100.00
65190;BME280;51777;53.570;9.984;2023-04-06T05:56:06;101680.47;;;3.13;100.00
65190;BME280;51777;53.570;9.984;2023-04-06T05:58:32;101683.47;;;3.21;100.00
65190;BME280;51777;53.570;9.984;2023-04-06T06:00:58;101678.34;;;3.21;100.00
65190;BME280;51777;53.570;9.984;2023-04-06T06:03:24;101680.47;;;3.30;100.00
65190;BME280;51777;53.570;9.984;2023-04-06T06:05:49;101679.84;;;3.42;100.00
65190;BME280;51777;53.570;9.984;2023-04-06T06:08:15;101677.91;;;3.47;100.00
65190;BME280;51777;53.570;9.984;2023-04-06T06:10:40;101689.47;;;3.54;100.00
65190;BME280;51777;53.570;9.984;2023-04-06T06:13:06;101683.44;;;3.56;100.00
65190;BME280;51777;53.570;9.984;2023-04-06T06:15:31;101683.59;;;3.52;100.00
65190;BME280;51777;53.570;9.984;2023-04-06T06:17:56;101688.28;;;3.62;100.00
65190;BME280;51777;53.570;9.984;2023-04-06T06:20:22;101679.97;;;3.74;100.00
65190;BME280;51777;53.570;9.984;2023-04-06T06:22:47;101693.69;;;3.89;100.00
65190;BME280;51777;53.570;9.984;2023-04-06T06:25:13;101691.88;;;3.91;100.00
65190;BME280;51777;53.570;9.984;2023-04-06T06:27:39;101690.72;;;3.96;100.00
65190;BME280;51777;53.570;9.984;2023-04-06T06:30:05;101688.63;;;4.04;100.00
65190;BME280;51777;53.570;9.984;2023-04-06T06:32:32;101689.34;;;4.06;100.00
65190;BME280;51777;53.570;9.984;2023-04-06T06:34:57;101689.94;;;4.11;100.00
65190;BME280;51777;53.570;9.984;2023-04-06T06:37:23;101699.47;;;4.25;100.00
65190;BME280;51777;53.570;9.984;2023-04-06T06:39:48;101701.59;;;4.33;100.00
65190;BME280;51777;53.570;9.984;2023-04-06T06:42:14;101701.59;;;4.33;100.00
65190;BME280;51777;53.570;9.984;2023-04-06T06:44:39;101694.03;;;4.47;100.00
65190;BME280;51777;53.570;9.984;2023-04-06T06:47:04;101697.97;;;4.53;100.00
65190;BME280;51777;53.570;9.984;2023-04-06T06:49:30;101691.69;;;4.58;100.00
65190;BME280;51777;53.570;9.984;2023-04-06T06:51:55;101702.25;;;4.68;100.00
65190;BME280;51777;53.570;9.984;2023-04-06T06:54:21;101698.47;;;4.75;100.00
65190;BME280;51777;53.570;9.984;2023-04-06T06:56:46;101702.28;;;4.84;100.00
65190;BME280;51777;53.570;9.984;2023-04-06T06:59:12;101702.19;;;4.85;100.00
65190;BME280;51777;53.570;9.984;2023-04-06T07:01:37;101701.34;;;4.85;100.00
65190;BME280;51777;53.570;9.984;2023-04-06T07:04:03;101699.91;;;4.95;100.00
65190;BME280;51777;53.570;9.984;2023-04-06T07:06:28;101698.94;;;4.97;100.00
65190;BME280;51777;53.570;9.984;2023-04-06T07:08:54;101702.56;;;5.09;100.00
65190;BME280;51777;53.570;9.984;2023-04-06T07:11:19;101699.44;;;5.18;100.00
65190;BME280;51777;53.570;9.984;2023-04-06T07:13:45;101709.69;;;5.18;100.00
65190;BME280;51777;53.570;9.984;2023-04-06T07:16:10;101704.59;;;5.32;100.00
65190;BME280;51777;53.570;9.984;2023-04-06T07:18:35;101694.84;;;5.53;100.00
65190;BME280;51777;53.570;9.984;2023-04-06T07:21:01;101702.56;;;5.82;100.00
65190;BME280;51777;53.570;9.984;2023-04-06T07:23:26;101703.53;;;5.95;100.00
65190;BME280;51777;53.570;9.984;2023-04-06T07:25:52;101702.97;;;6.04;100.00
65190;BME280;51777;53.570;9.984;2023-04-06T07:28:19;101704.09;;;6.14;100.00
65190;BME280;51777;53.570;9.984;2023-04-06T07:30:44;101697.50;;;6.10;100.00
65190;BME280;51777;53.570;9.984;2023-04-06T07:33:10;101699.56;;;6.32;100.00
65190;BME280;51777;53.570;9.984;2023-04-06T07:35:35;101694.75;;;6.55;100.00
65190;BME280;51777;53.570;9.984;2023-04-06T07:38:02;101696.88;;;6.75;100.00
65190;BME280;51777;53.570;9.984;2023-04-06T07:40:27;101698.38;;;6.92;100.00
65190;BME280;51777;53.570;9.984;2023-04-06T07:42:53;101697.69;;;7.02;100.00
65190;BME280;51777;53.570;9.984;2023-04-06T07:45:18;101690.81;;;7.16;100.00
65190;BME280;51777;53.570;9.984;2023-04-06T07:47:44;101691.38;;;7.21;100.00
65190;BME280;51777;53.570;9.984;2023-04-06T07:50:10;101687.22;;;7.18;100.00
65190;BME280;51777;53.570;9.984;2023-04-06T07:52:36;101688.13;;;7.44;100.00
65190;BME280;51777;53.570;9.984;2023-04-06T07:55:02;101690.38;;;7.61;100.00
65190;BME280;51777;53.570;9.984;2023-04-06T07:57:27;101693.56;;;7.65;100.00
65190;BME280;51777;53.570;9.984;2023-04-06T07:59:52;101691.41;;;7.72;100.00
65190;BME280;51777;53.570;9.984;2023-04-06T08:02:18;101685.00;;;7.77;100.00
65190;BME280;51777;53.570;9.984;2023-04-06T08:04:44;101682.66;;;7.61;100.00
65190;BME280;51777;53.570;9.984;2023-04-06T08:07:10;101694.81;;;7.72;100.00
65190;BME280;51777;53.570;9.984;2023-04-06T08:09:36;101689.75;;;7.71;100.00
65190;BME280;51777;53.570;9.984;2023-04-06T08:12:02;101696.91;;;8.04;100.00
65190;BME280;51777;53.570;9.984;2023-04-06T08:14:27;101693.69;;;8.25;100.00
65190;BME280;51777;53.570;9.984;2023-04-06T08:16:53;101691.28;;;8.48;100.00
65190;BME280;51777;53.570;9.984;2023-04-06T08:19:19;101688.13;;;8.44;100.00
65190;BME280;51777;53.570;9.984;2023-04-06T08:21:45;101692.00;;;8.50;100.00
65190;BME280;51777;53.570;9.984;2023-04-06T08:24:12;101693.38;;;8.91;100.00
65190;BME280;51777;53.570;9.984;2023-04-06T08:26:38;101688.25;;;9.02;100.00
65190;BME280;51777;53.570;9.984;2023-04-06T08:29:04;101689.69;;;9.17;100.00
65190;BME280;51777;53.570;9.984;2023-04-06T08:31:35;101687.59;;;9.68;100.00
65190;BME280;51777;53.570;9.984;2023-04-06T08:34:04;101696.53;;;12.10;100.00
65190;BME280;51777;53.570;9.984;2023-04-06T08:36:31;101710.78;;;15.75;97.70
65190;BME280;51777;53.570;9.984;2023-04-06T08:38:57;101717.44;;;19.45;93.45
65190;BME280;51777;53.570;9.984;2023-04-06T08:41:22;101730.53;;;22.22;92.48
65190;BME280;51777;53.570;9.984;2023-04-06T08:43:50;101739.38;;;24.51;90.51
65190;BME280;51777;53.570;9.984;2023-04-06T08:46:21;101747.03;;;25.16;87.41
65190;BME280;51777;53.570;9.984;2023-04-06T08:48:47;101737.09;;;24.62;87.78
65190;BME280;51777;53.570;9.984;2023-04-06T08:51:17;101743.09;;;26.88;88.08
65190;BME280;51777;53.570;9.984;2023-04-06T08:53:43;101751.09;;;27.35;86.45
65190;BME280;51777;53.570;9.984;2023-04-06T08:56:09;101755.44;;;27.76;84.85
65190;BME280;51777;53.570;9.984;2023-04-06T08:58:38;101750.50;;;26.98;84.38
65190;BME280;51777;53.570;9.984;2023-04-06T09:01:11;101756.34;;;26.88;84.09
65190;BME280;51777;53.570;9.984;2023-04-06T09:03:39;101754.28;;;26.90;85.77
65190;BME280;51777;53.570;9.984;2023-04-06T09:06:06;101746.75;;;25.67;85.04
65190;BME280;51777;53.570;9.984;2023-04-06T09:08:37;101746.25;;;26.25;84.82
65190;BME280;51777;53.570;9.984;2023-04-06T09:11:03;101755.84;;;27.33;84.56
65190;BME280;51777;53.570;9.984;2023-04-06T09:13:29;101749.38;;;27.17;84.21
65190;BME280;51777;53.570;9.984;2023-04-06T09:16:00;101749.97;;;26.54;85.37
65190;BME280;51777;53.570;9.984;2023-04-06T09:18:33;101744.91;;;26.76;84.49
65190;BME280;51777;53.570;9.984;2023-04-06T09:21:05;101751.72;;;25.82;83.86
65190;BME280;51777;53.570;9.984;2023-04-06T09:23:31;101734.47;;;25.11;84.66
65190;BME280;51777;53.570;9.984;2023-04-06T09:26:12;101736.72;;;24.83;84.45
65190;BME280;51777;53.570;9.984;2023-04-06T09:28:49;101731.84;;;25.73;85.28
65190;BME280;51777;53.570;9.984;2023-04-06T09:31:17;101738.41;;;25.64;84.08
65190;BME280;51777;53.570;9.984;2023-04-06T09:33:46;101726.25;;;25.20;84.36
65190;BME280;51777;53.570;9.984;2023-04-06T09:36:12;101740.22;;;25.27;85.50
65190;BME280;51777;53.570;9.984;2023-04-06T09:38:55;101710.47;;;22.28;86.84
65190;BME280;51777;53.570;9.984;2023-04-06T09:41:25;101707.19;;;22.19;87.36
65190;BME280;51777;53.570;9.984;2023-04-06T09:44:00;101713.22;;;23.21;86.42
65190;BME280;51777;53.570;9.984;2023-04-06T09:46:27;101703.44;;;23.28;86.53
65190;BME280;51777;53.570;9.984;2023-04-06T09:49:03;101706.53;;;25.15;86.14
65190;BME280;51777;53.570;9.984;2023-04-06T09:51:37;101706.66;;;25.02;85.56
65190;BME280;51777;53.570;9.984;2023-04-06T09:54:03;101691.09;;;24.63;84.53
65190;BME280;51777;53.570;9.984;2023-04-06T09:56:58;101695.25;;;23.69;84.54
65190;BME280;51777;53.570;9.984;2023-04-06T09:59:36;101701.63;;;24.38;84.56
65190;BME280;51777;53.570;9.984;2023-04-06T10:02:05;101698.38;;;24.67;84.30
65190;BME280;51777;53.570;9.984;2023-04-06T10:04:50;101698.00;;;26.05;83.65
65190;BME280;51777;53.570;9.984;2023-04-06T10:07:20;101698.41;;;24.36;84.21
65190;BME280;51777;53.570;9.984;2023-04-06T10:09:46;101683.59;;;21.91;85.27
65190;BME280;51777;53.570;9.984;2023-04-06T10:12:12;101677.81;;;21.27;86.01
65190;BME280;51777;53.570;9.984;2023-04-06T10:14:39;101688.44;;;22.69;86.35
65190;BME280;51777;53.570;9.984;2023-04-06T10:17:06;101684.59;;;23.24;85.81
65190;BME280;51777;53.570;9.984;2023-04-06T10:19:54;101675.28;;;23.02;85.32
65190;BME280;51777;53.570;9.984;2023-04-06T10:22:52;101665.63;;;20.34;86.49
65190;BME280;51777;53.570;9.984;2023-04-06T10:25:37;101672.94;;;20.17;87.05
65190;BME280;51777;53.570;9.984;2023-04-06T10:28:07;101677.38;;;20.52;87.25
65190;BME280;51777;53.570;9.984;2023-04-06T10:30:34;101672.59;;;20.41;87.81
65190;BME280;51777;53.570;9.984;2023-04-06T10:33:00;101681.72;;;21.37;87.39
65190;BME280;51777;53.570;9.984;2023-04-06T10:35:36;101661.88;;;20.00;87.44
65190;BME280;51777;53.570;9.984;2023-04-06T10:38:04;101667.31;;;20.20;87.53
65190;BME280;51777;53.570;9.984;2023-04-06T10:40:30;101658.47;;;19.26;88.50
65190;BME280;51777;53.570;9.984;2023-04-06T10:43:09;101650.84;;;19.46;88.18
65190;BME280;51777;53.570;9.984;2023-04-06T10:45:35;101661.53;;;20.46;88.18
65190;BME280;51777;53.570;9.984;2023-04-06T10:48:21;101662.44;;;20.17;87.38
65190;BME280;51777;53.570;9.984;2023-04-06T10:50:49;101656.84;;;20.84;87.72
65190;BME280;51777;53.570;9.984;2023-04-06T10:53:25;101661.53;;;20.89;87.43
65190;BME280;51777;53.570;9.984;2023-04-06T10:55:52;101661.22;;;19.62;88.18
65190;BME280;51777;53.570;9.984;2023-04-06T10:58:18;101656.06;;;20.05;88.25
65190;BME280;51777;53.570;9.984;2023-04-06T11:00:48;101652.59;;;19.68;88.14
65190;BME280;51777;53.570;9.984;2023-04-06T11:03:14;101652.97;;;19.65;88.01
65190;BME280;51777;53.570;9.984;2023-04-06T11:05:47;101650.97;;;19.52;88.25
65190;BME280;51777;53.570;9.984;2023-04-06T11:08:26;101644.00;;;20.32;87.87
65190;BME280;51777;53.570;9.984;2023-04-06T11:10:52;101648.56;;;20.87;87.77
65190;BME280;51777;53.570;9.984;2023-04-06T11:13:17;101637.44;;;20.00;87.79
65190;BME280;51777;53.570;9.984;2023-04-06T11:15:43;101636.22;;;20.60;88.19
65190;BME280;51777;53.570;9.984;2023-04-06T11:18:08;101627.94;;;19.99;88.23
65190;BME280;51777;53.570;9.984;2023-04-06T11:20:34;101635.50;;;20.30;88.40
65190;BME280;51777;53.570;9.984;2023-04-06T11:23:00;101634.50;;;21.01;88.27
65190;BME280;51777;53.570;9.984;2023-04-06T11:25:26;101637.63;;;21.11;87.65
65190;BME280;51777;53.570;9.984;2023-04-06T11:27:53;101630.31;;;20.58;87.74
65190;BME280;51777;53.570;9.984;2023-04-06T11:30:19;101625.34;;;19.69;88.42
65190;BME280;51777;53.570;9.984;2023-04-06T11:32:45;101621.88;;;20.41;88.91
65190;BME280;51777;53.570;9.984;2023-04-06T11:35:19;101618.69;;;20.45;88.60
65190;BME280;51777;53.570;9.984;2023-04-06T11:37:44;101620.38;;;20.10;88.69
65190;BME280;51777;53.570;9.984;2023-04-06T11:40:10;101615.66;;;20.42;88.48
65190;BME280;51777;53.570;9.984;2023-04-06T11:42:35;101617.91;;;20.09;89.04
65190;BME280;51777;53.570;9.984;2023-04-06T11:45:01;101620.28;;;19.68;88.74
65190;BME280;51777;53.570;9.984;2023-04-06T11:47:33;101623.81;;;20.32;88.59
65190;BME280;51777;53.570;9.984;2023-04-06T11:50:08;101613.34;;;21.09;87.61
65190;BME280;51777;53.570;9.984;2023-04-06T11:52:34;101609.28;;;20.79;87.90
65190;BME280;51777;53.570;9.984;2023-04-06T11:55:14;101611.34;;;21.18;88.40
65190;BME280;51777;53.570;9.984;2023-04-06T11:57:40;101611.03;;;21.76;87.43
65190;BME280;51777;53.570;9.984;2023-04-06T12:00:09;101614.31;;;21.91;87.04
65190;BME280;51777;53.570;9.984;2023-04-06T12:02:36;101608.91;;;21.17;87.67
65190;BME280;51777;53.570;9.984;2023-04-06T12:05:02;101594.00;;;19.82;88.00
65190;BME280;51777;53.570;9.984;2023-04-06T12:07:29;101605.06;;;20.35;88.04
65190;BME280;51777;53.570;9.984;2023-04-06T12:09:55;101598.16;;;19.55;88.34
65190;BME280;51777;53.570;9.984;2023-04-06T12:12:21;101593.97;;;20.89;88.10
65190;BME280;51777;53.570;9.984;2023-04-06T12:14:46;101597.72;;;21.08;88.19
65190;BME280;51777;53.570;9.984;2023-04-06T12:17:39;101598.50;;;21.02;87.66
65190;BME280;51777;53.570;9.984;2023-04-06T12:20:05;101589.97;;;20.65;87.74
65190;BME280;51777;53.570;9.984;2023-04-06T12:22:31;101589.69;;;20.53;87.81
65190;BME280;51777;53.570;9.984;2023-04-06T12:24:57;101592.66;;;21.34;87.66
65190;BME280;51777;53.570;9.984;2023-04-06T12:27:22;101587.34;;;21.28;87.36
65190;BME280;51777;53.570;9.984;2023-04-06T12:29:48;101593.72;;;22.27;87.14
65190;BME280;51777;53.570;9.984;2023-04-06T12:32:13;101589.94;;;21.21;87.11
65190;BME280;51777;53.570;9.984;2023-04-06T12:34:39;101593.25;;;22.04;87.02
65190;BME280;51777;53.570;9.984;2023-04-06T12:37:04;101598.22;;;22.34;86.88
65190;BME280;51777;53.570;9.984;2023-04-06T12:39:30;101590.91;;;22.36;87.25
65190;BME280;51777;53.570;9.984;2023-04-06T12:41:56;101578.97;;;20.83;87.70
65190;BME280;51777;53.570;9.984;2023-04-06T12:44:22;101583.41;;;20.55;88.44
65190;BME280;51777;53.570;9.984;2023-04-06T12:46:48;101575.72;;;21.09;87.82
65190;BME280;51777;53.570;9.984;2023-04-06T12:49:13;101576.31;;;21.46;87.60